sensor_id;sensor_type;location;lat;lon;timestamp;P1;durP1;ratioP1;P2;durP2;ratioP2
5245;SDS011;54412;51.206;6.888;2023-03-20T00:02:04;14.40;;;10.10;;
5245;SDS011;54412;51.206;6.888;2023-03-20T00:04:31;11.67;;;9.70;;
5245;SDS011;54412;51.206;6.888;2023-03-20T00:06:58;14.90;;;10.77;;
5245;SDS011;54412;51.206;6.888;2023-03-20T00:09:23;12.33;;;9.80;;
5245;SDS011;54412;51.206;6.888;2023-03-20T00:11:52;11.50;;;9.50;;
5245;SDS011;54412;51.206;6.888;2023-03-20T00:14:20;12.77;;;9.87;;
5245;SDS011;54412;51.206;6.888;2023-03-20T00:16:48;15.20;;;10.73;;
5245;SDS011;54412;51.206;6.888;2023-03-20T00:19:16;15.17;;;11.10;;
5245;SDS011;54412;51.206;6.888;2023-03-20T00:21:44;13.60;;;11.00;;
5245;SDS011;54412;51.206;6.888;2023-03-20T00:24:12;13.90;;;10.17;;
5245;SDS011;54412;51.206;6.888;2023-03-20T00:26:39;11.23;;;9.63;;
5245;SDS011;54412;51.206;6.888;2023-03-20T00:29:06;10.40;;;8.93;;
5245;SDS011;54412;51.206;6.888;2023-03-20T00:31:51;11.30;;;9.83;;
5245;SDS011;54412;51.206;6.888;2023-03-20T00:34:20;11.83;;;10.23;;
5245;SDS011;54412;51.206;6.888;2023-03-20T00:36:49;10.43;;;9.30;;
5245;SDS011;54412;51.206;6.888;2023-03-20T00:39:16;13.43;;;9.70;;
5245;SDS011;54412;51.206;6.888;2023-03-20T00:44:23;11.20;;;9.37;;
5245;SDS011;54412;51.206;6.888;2023-03-20T00:46:59;13.30;;;9.10;;
5245;SDS011;54412;51.206;6.888;2023-03-20T00:49:28;10.87;;;8.47;;
5245;SDS011;54412;51.206;6.888;2023-03-20T00:51:57;13.17;;;9.47;;
5245;SDS011;54412;51.206;6.888;2023-03-20T00:54:25;9.67;;;8.67;;
5245;SDS011;54412;51.206;6.888;2023-03-20T00:59:58;10.03;;;8.23;;
5245;SDS011;54412;51.206;6.888;2023-03-20T01:02:29;9.83;;;7.73;;
5245;SDS011;54412;51.206;6.888;2023-03-20T01:04:55;9.57;;;8.60;;
5245;SDS011;54412;51.206;6.888;2023-03-20T01:07:22;10.10;;;8.27;;
5245;SDS011;54412;51.206;6.888;2023-03-20T01:09:48;10.50;;;8.50;;
5245;SDS011;54412;51.206;6.888;2023-03-20T01:12:13;10.37;;;7.57;;
5245;SDS011;54412;51.206;6.888;2023-03-20T01:14:40;10.03;;;8.73;;
5245;SDS011;54412;51.206;6.888;2023-03-20T01:17:17;9.07;;;8.10;;
5245;SDS011;54412;51.206;6.888;2023-03-20T01:19:46;11.27;;;8.30;;
5245;SDS011;54412;51.206;6.888;2023-03-20T01:22:13;9.17;;;8.20;;
5245;SDS011;54412;51.206;6.888;2023-03-20T01:24:41;8.40;;;7.43;;
5245;SDS011;54412;51.206;6.888;2023-03-20T01:27:14;9.17;;;7.90;;
5245;SDS011;54412;51.206;6.888;2023-03-20T01:29:43;9.57;;;8.60;;
5245;SDS011;54412;51.206;6.888;2023-03-20T01:32:11;10.30;;;8.47;;
5245;SDS011;54412;51.206;6.888;2023-03-20T01:34:43;9.60;;;8.70;;
5245;SDS011;54412;51.206;6.888;2023-03-20T01:37:10;11.60;;;9.43;;
5245;SDS011;54412;51.206;6.888;2023-03-20T01:39:50;10.30;;;8.93;;
5245;SDS011;54412;51.206;6.888;2023-03-20T01:42:17;12.23;;;9.57;;
5245;SDS011;54412;51.206;6.888;2023-03-20T01:44:43;10.80;;;8.63;;
5245;SDS011;54412;51.206;6.888;2023-03-20T01:47:20;10.27;;;9.00;;
5245;SDS011;54412;51.206;6.888;2023-03-20T01:52:43;10.93;;;9.03;;
5245;SDS011;54412;51.206;6.888;2023-03-20T01:55:12;12.47;;;9.00;;
5245;SDS011;54412;51.206;6.888;2023-03-20T01:57:37;12.43;;;10.13;;
5245;SDS011;54412;51.206;6.888;2023-03-20T02:00:04;13.77;;;10.60;;
5245;SDS011;54412;51.206;6.888;2023-03-20T02:02:35;12.20;;;10.47;;
5245;SDS011;54412;51.206;6.888;2023-03-20T02:05:05;16.80;;;10.70;;
5245;SDS011;54412;51.206;6.888;2023-03-20T02:07:35;12.80;;;9.90;;
5245;SDS011;54412;51.206;6.888;2023-03-20T02:10:11;12.47;;;9.67;;
5245;SDS011;54412;51.206;6.888;2023-03-20T02:12:39;12.50;;;10.60;;
5245;SDS011;54412;51.206;6.888;2023-03-20T02:15:06;14.50;;;10.60;;
5245;SDS011;54412;51.206;6.888;2023-03-20T02:17:33;13.47;;;8.87;;
5245;SDS011;54412;51.206;6.888;2023-03-20T02:20:09;14.00;;;9.10;;
5245;SDS011;54412;51.206;6.888;2023-03-20T02:28:33;12.17;;;9.27;;
5245;SDS011;54412;51.206;6.888;2023-03-20T02:49:42;10.57;;;8.70;;
5245;SDS011;54412;51.206;6.888;2023-03-20T02:52:24;9.83;;;8.83;;
5245;SDS011;54412;51.206;6.888;2023-03-20T02:55:23;11.17;;;8.40;;
5245;SDS011;54412;51.206;6.888;2023-03-20T03:01:08;10.27;;;8.97;;
5245;SDS011;54412;51.206;6.888;2023-03-20T03:03:43;12.50;;;10.50;;
5245;SDS011;54412;51.206;6.888;2023-03-20T03:06:25;13.30;;;10.73;;
5245;SDS011;54412;51.206;6.888;2023-03-20T03:09:05;14.43;;;10.73;;
5245;SDS011;54412;51.206;6.888;2023-03-20T03:11:42;18.60;;;12.00;;
5245;SDS011;54412;51.206;6.888;2023-03-20T03:14:18;19.20;;;13.17;;
5245;SDS011;54412;51.206;6.888;2023-03-20T03:16:59;17.80;;;12.00;;
5245;SDS011;54412;51.206;6.888;2023-03-20T03:19:29;15.67;;;10.20;;
5245;SDS011;54412;51.206;6.888;2023-03-20T03:21:58;18.03;;;12.17;;
5245;SDS011;54412;51.206;6.888;2023-03-20T03:24:27;13.80;;;11.17;;
5245;SDS011;54412;51.206;6.888;2023-03-20T03:26:57;16.00;;;13.43;;
5245;SDS011;54412;51.206;6.888;2023-03-20T03:29:35;18.73;;;12.90;;
5245;SDS011;54412;51.206;6.888;2023-03-20T03:32:04;16.70;;;12.73;;
5245;SDS011;54412;51.206;6.888;2023-03-20T03:34:43;14.20;;;12.10;;
5245;SDS011;54412;51.206;6.888;2023-03-20T03:37:13;18.67;;;13.67;;
5245;SDS011;54412;51.206;6.888;2023-03-20T03:39:53;21.50;;;12.50;;
5245;SDS011;54412;51.206;6.888;2023-03-20T03:42:52;17.30;;;12.47;;
5245;SDS011;54412;51.206;6.888;2023-03-20T03:48:11;10.90;;;9.37;;
5245;SDS011;54412;51.206;6.888;2023-03-20T03:50:44;15.67;;;11.97;;
5245;SDS011;54412;51.206;6.888;2023-03-20T03:53:19;19.50;;;12.20;;
5245;SDS011;54412;51.206;6.888;2023-03-20T03:55:53;15.63;;;12.20;;
5245;SDS011;54412;51.206;6.888;2023-03-20T03:58:27;15.70;;;12.00;;
5245;SDS011;54412;51.206;6.888;2023-03-20T04:00:56;13.70;;;10.60;;
5245;SDS011;54412;51.206;6.888;2023-03-20T04:03:29;13.30;;;11.27;;
5245;SDS011;54412;51.206;6.888;2023-03-20T04:06:01;15.83;;;11.60;;
5245;SDS011;54412;51.206;6.888;2023-03-20T04:08:31;14.50;;;11.53;;
5245;SDS011;54412;51.206;6.888;2023-03-20T04:10:58;15.97;;;12.43;;
5245;SDS011;54412;51.206;6.888;2023-03-20T04:13:24;14.07;;;12.10;;
5245;SDS011;54412;51.206;6.888;2023-03-20T04:15:50;20.30;;;13.27;;
5245;SDS011;54412;51.206;6.888;2023-03-20T04:18:16;18.00;;;13.20;;
5245;SDS011;54412;51.206;6.888;2023-03-20T04:20:43;22.00;;;13.03;;
5245;SDS011;54412;51.206;6.888;2023-03-20T04:23:11;16.73;;;13.47;;
5245;SDS011;54412;51.206;6.888;2023-03-20T04:25:38;17.40;;;13.57;;
5245;SDS011;54412;51.206;6.888;2023-03-20T04:28:04;19.30;;;12.20;;
5245;SDS011;54412;51.206;6.888;2023-03-20T04:30:30;19.53;;;12.57;;
5245;SDS011;54412;51.206;6.888;2023-03-20T04:32:56;17.90;;;12.33;;
5245;SDS011;54412;51.206;6.888;2023-03-20T04:35:22;16.83;;;12.80;;
5245;SDS011;54412;51.206;6.888;2023-03-20T04:37:47;15.90;;;11.80;;
5245;SDS011;54412;51.206;6.888;2023-03-20T04:40:13;16.43;;;11.70;;
5245;SDS011;54412;51.206;6.888;2023-03-20T04:42:39;20.70;;;13.60;;
5245;SDS011;54412;51.206;6.888;2023-03-20T04:45:05;17.87;;;12.50;;
5245;SDS011;54412;51.206;6.888;2023-03-20T04:47:32;15.03;;;11.83;;
5245;SDS011;54412;51.206;6.888;2023-03-20T04:49:58;18.07;;;12.60;;
5245;SDS011;54412;51.206;6.888;2023-03-20T04:52:23;16.73;;;12.73;;
5245;SDS011;54412;51.206;6.888;2023-03-20T04:54:49;16.27;;;12.43;;
5245;SDS011;54412;51.206;6.888;2023-03-20T04:57:15;18.23;;;12.30;;
5245;SDS011;54412;51.206;6.888;2023-03-20T04:59:40;16.53;;;13.27;;
5245;SDS011;54412;51.206;6.888;2023-03-20T05:02:06;22.27;;;12.93;;
5245;SDS011;54412;51.206;6.888;2023-03-20T05:04:33;17.03;;;13.17;;
5245;SDS011;54412;51.206;6.888;2023-03-20T05:06:58;15.37;;;11.80;;
5245;SDS011;54412;51.206;6.888;2023-03-20T05:09:24;17.07;;;12.53;;
5245;SDS011;54412;51.206;6.888;2023-03-20T05:11:50;21.73;;;13.43;;
5245;SDS011;54412;51.206;6.888;2023-03-20T05:14:16;14.77;;;11.30;;
5245;SDS011;54412;51.206;6.888;2023-03-20T05:16:41;17.17;;;11.87;;
5245;SDS011;54412;51.206;6.888;2023-03-20T05:19:07;21.77;;;12.50;;
5245;SDS011;54412;51.206;6.888;2023-03-20T05:21:32;15.50;;;11.40;;
5245;SDS011;54412;51.206;6.888;2023-03-20T05:23:58;14.30;;;11.53;;
5245;SDS011;54412;51.206;6.888;2023-03-20T05:26:24;15.33;;;10.80;;
5245;SDS011;54412;51.206;6.888;2023-03-20T05:28:50;17.27;;;12.50;;
5245;SDS011;54412;51.206;6.888;2023-03-20T05:31:15;15.03;;;11.07;;
5245;SDS011;54412;51.206;6.888;2023-03-20T05:33:42;17.70;;;11.67;;
5245;SDS011;54412;51.206;6.888;2023-03-20T05:36:07;13.57;;;10.87;;
5245;SDS011;54412;51.206;6.888;2023-03-20T05:38:33;13.87;;;10.40;;
5245;SDS011;54412;51.206;6.888;2023-03-20T05:40:59;15.57;;;10.50;;
5245;SDS011;54412;51.206;6.888;2023-03-20T05:43:26;13.53;;;10.60;;
5245;SDS011;54412;51.206;6.888;2023-03-20T05:45:53;15.40;;;12.07;;
5245;SDS011;54412;51.206;6.888;2023-03-20T05:48:21;16.00;;;12.23;;
5245;SDS011;54412;51.206;6.888;2023-03-20T05:50:47;18.47;;;13.40;;
5245;SDS011;54412;51.206;6.888;2023-03-20T05:53:13;19.07;;;12.70;;
5245;SDS011;54412;51.206;6.888;2023-03-20T05:55:39;19.67;;;12.60;;
5245;SDS011;54412;51.206;6.888;2023-03-20T05:58:06;21.60;;;14.10;;
5245;SDS011;54412;51.206;6.888;2023-03-20T06:00:31;20.50;;;13.00;;
5245;SDS011;54412;51.206;6.888;2023-03-20T06:02:57;18.77;;;13.90;;
5245;SDS011;54412;51.206;6.888;2023-03-20T06:05:23;19.53;;;14.17;;
5245;SDS011;54412;51.206;6.888;2023-03-20T06:07:48;19.80;;;13.77;;
5245;SDS011;54412;51.206;6.888;2023-03-20T06:10:15;19.07;;;13.53;;
5245;SDS011;54412;51.206;6.888;2023-03-20T06:12:41;17.23;;;12.90;;
5245;SDS011;54412;51.206;6.888;2023-03-20T06:15:06;21.47;;;13.43;;
5245;SDS011;54412;51.206;6.888;2023-03-20T06:17:33;16.93;;;12.50;;
5245;SDS011;54412;51.206;6.888;2023-03-20T06:19:58;22.87;;;11.47;;
5245;SDS011;54412;51.206;6.888;2023-03-20T06:22:25;20.27;;;13.60;;
5245;SDS011;54412;51.206;6.888;2023-03-20T06:24:50;20.70;;;12.73;;
5245;SDS011;54412;51.206;6.888;2023-03-20T06:27:16;21.03;;;13.47;;
5245;SDS011;54412;51.206;6.888;2023-03-20T06:29:42;19.83;;;13.63;;
5245;SDS011;54412;51.206;6.888;2023-03-20T06:32:08;19.60;;;12.73;;
5245;SDS011;54412;51.206;6.888;2023-03-20T06:34:36;25.60;;;14.00;;
5245;SDS011;54412;51.206;6.888;2023-03-20T06:37:02;22.80;;;12.73;;
5245;SDS011;54412;51.206;6.888;2023-03-20T06:39:27;16.60;;;13.13;;
5245;SDS011;54412;51.206;6.888;2023-03-20T06:41:53;20.50;;;14.10;;
5245;SDS011;54412;51.206;6.888;2023-03-20T06:44:19;22.33;;;13.70;;
5245;SDS011;54412;51.206;6.888;2023-03-20T06:46:45;19.20;;;12.03;;
5245;SDS011;54412;51.206;6.888;2023-03-20T06:49:11;20.20;;;14.10;;
5245;SDS011;54412;51.206;6.888;2023-03-20T06:51:37;25.60;;;14.73;;
5245;SDS011;54412;51.206;6.888;2023-03-20T06:54:03;21.43;;;12.90;;
5245;SDS011;54412;51.206;6.888;2023-03-20T06:56:29;19.53;;;13.67;;
5245;SDS011;54412;51.206;6.888;2023-03-20T06:58:56;20.53;;;13.10;;
5245;SDS011;54412;51.206;6.888;2023-03-20T07:01:22;20.00;;;13.00;;
5245;SDS011;54412;51.206;6.888;2023-03-20T07:03:48;17.00;;;12.40;;
5245;SDS011;54412;51.206;6.888;2023-03-20T07:06:14;23.03;;;13.97;;
5245;SDS011;54412;51.206;6.888;2023-03-20T07:08:42;24.70;;;15.07;;
5245;SDS011;54412;51.206;6.888;2023-03-20T07:11:09;20.00;;;12.50;;
5245;SDS011;54412;51.206;6.888;2023-03-20T07:13:34;23.37;;;14.90;;
5245;SDS011;54412;51.206;6.888;2023-03-20T07:16:01;24.10;;;12.80;;
5245;SDS011;54412;51.206;6.888;2023-03-20T07:18:27;18.27;;;12.33;;
5245;SDS011;54412;51.206;6.888;2023-03-20T07:20:53;22.53;;;12.97;;
5245;SDS011;54412;51.206;6.888;2023-03-20T07:23:27;20.87;;;15.10;;
5245;SDS011;54412;51.206;6.888;2023-03-20T07:25:58;22.30;;;12.13;;
5245;SDS011;54412;51.206;6.888;2023-03-20T07:28:24;21.43;;;12.77;;
5245;SDS011;54412;51.206;6.888;2023-03-20T07:30:50;20.33;;;12.60;;
5245;SDS011;54412;51.206;6.888;2023-03-20T07:33:16;18.73;;;12.33;;
5245;SDS011;54412;51.206;6.888;2023-03-20T07:35:42;17.13;;;12.40;;
5245;SDS011;54412;51.206;6.888;2023-03-20T07:38:07;18.23;;;12.87;;
5245;SDS011;54412;51.206;6.888;2023-03-20T07:40:33;24.10;;;14.40;;
5245;SDS011;54412;51.206;6.888;2023-03-20T07:42:59;19.27;;;12.90;;
5245;SDS011;54412;51.206;6.888;2023-03-20T07:45:25;18.83;;;11.30;;
5245;SDS011;54412;51.206;6.888;2023-03-20T07:47:51;17.33;;;11.03;;
5245;SDS011;54412;51.206;6.888;2023-03-20T07:50:16;16.40;;;9.10;;
5245;SDS011;54412;51.206;6.888;2023-03-20T07:52:46;13.63;;;10.10;;
5245;SDS011;54412;51.206;6.888;2023-03-20T07:55:13;16.47;;;9.30;;
5245;SDS011;54412;51.206;6.888;2023-03-20T07:57:40;20.10;;;9.40;;
5245;SDS011;54412;51.206;6.888;2023-03-20T08:00:06;11.17;;;8.40;;
5245;SDS011;54412;51.206;6.888;2023-03-20T08:02:33;15.13;;;9.20;;
5245;SDS011;54412;51.206;6.888;2023-03-20T08:05:00;14.97;;;7.83;;
5245;SDS011;54412;51.206;6.888;2023-03-20T08:07:25;17.23;;;8.00;;
5245;SDS011;54412;51.206;6.888;2023-03-20T08:09:53;13.27;;;8.93;;
5245;SDS011;54412;51.206;6.888;2023-03-20T08:12:20;13.33;;;8.67;;
5245;SDS011;54412;51.206;6.888;2023-03-20T08:14:45;16.47;;;9.80;;
5245;SDS011;54412;51.206;6.888;2023-03-20T08:17:11;12.80;;;9.27;;
5245;SDS011;54412;51.206;6.888;2023-03-20T08:19:37;16.67;;;9.00;;
5245;SDS011;54412;51.206;6.888;2023-03-20T08:22:03;13.73;;;8.93;;
5245;SDS011;54412;51.206;6.888;2023-03-20T08:24:29;23.10;;;9.07;;
5245;SDS011;54412;51.206;6.888;2023-03-20T08:26:55;13.60;;;8.57;;
5245;SDS011;54412;51.206;6.888;2023-03-20T08:29:21;15.10;;;8.90;;
5245;SDS011;54412;51.206;6.888;2023-03-20T08:31:47;11.33;;;8.30;;
5245;SDS011;54412;51.206;6.888;2023-03-20T08:34:13;15.80;;;8.00;;
5245;SDS011;54412;51.206;6.888;2023-03-20T08:36:38;20.40;;;8.47;;
5245;SDS011;54412;51.206;6.888;2023-03-20T08:39:05;14.50;;;7.47;;
5245;SDS011;54412;51.206;6.888;2023-03-20T08:41:31;13.77;;;8.03;;
5245;SDS011;54412;51.206;6.888;2023-03-20T08:43:58;16.00;;;7.27;;
5245;SDS011;54412;51.206;6.888;2023-03-20T08:46:23;13.23;;;7.43;;
5245;SDS011;54412;51.206;6.888;2023-03-20T08:48:49;10.60;;;7.00;;
5245;SDS011;54412;51.206;6.888;2023-03-20T08:51:15;17.10;;;7.17;;
5245;SDS011;54412;51.206;6.888;2023-03-20T08:53:41;13.00;;;7.53;;
5245;SDS011;54412;51.206;6.888;2023-03-20T08:56:07;12.93;;;7.40;;
5245;SDS011;54412;51.206;6.888;2023-03-20T08:58:33;19.53;;;7.83;;
5245;SDS011;54412;51.206;6.888;2023-03-20T09:01:05;15.20;;;6.30;;
5245;SDS011;54412;51.206;6.888;2023-03-20T09:03:33;12.40;;;6.60;;
5245;SDS011;54412;51.206;6.888;2023-03-20T09:06:00;12.17;;;6.33;;
5245;SDS011;54412;51.206;6.888;2023-03-20T09:08:30;6.70;;;5.67;;
5245;SDS011;54412;51.206;6.888;2023-03-20T09:10:56;11.17;;;6.13;;
5245;SDS011;54412;51.206;6.888;2023-03-20T09:13:22;11.60;;;5.80;;
5245;SDS011;54412;51.206;6.888;2023-03-20T09:15:49;9.10;;;6.30;;
5245;SDS011;54412;51.206;6.888;2023-03-20T09:18:15;13.57;;;5.30;;
5245;SDS011;54412;51.206;6.888;2023-03-20T09:20:45;8.07;;;5.03;;
5245;SDS011;54412;51.206;6.888;2023-03-20T09:23:12;11.83;;;6.50;;
5245;SDS011;54412;51.206;6.888;2023-03-20T09:25:38;9.43;;;5.57;;
5245;SDS011;54412;51.206;6.888;2023-03-20T09:28:03;9.17;;;6.03;;
5245;SDS011;54412;51.206;6.888;2023-03-20T09:30:29;10.37;;;6.30;;
5245;SDS011;54412;51.206;6.888;2023-03-20T09:32:55;13.13;;;6.10;;
5245;SDS011;54412;51.206;6.888;2023-03-20T09:35:21;9.77;;;5.90;;
5245;SDS011;54412;51.206;6.888;2023-03-20T09:37:46;8.87;;;5.57;;
5245;SDS011;54412;51.206;6.888;2023-03-20T09:40:36;10.80;;;5.43;;
5245;SDS011;54412;51.206;6.888;2023-03-20T09:43:28;9.80;;;5.00;;
5245;SDS011;54412;51.206;6.888;2023-03-20T09:46:38;9.27;;;4.80;;
5245;SDS011;54412;51.206;6.888;2023-03-20T09:52:50;15.47;;;5.30;;
5245;SDS011;54412;51.206;6.888;2023-03-20T09:55:31;15.40;;;5.87;;
5245;SDS011;54412;51.206;6.888;2023-03-20T09:58:08;8.77;;;4.40;;
5245;SDS011;54412;51.206;6.888;2023-03-20T10:00:43;7.03;;;4.30;;
5245;SDS011;54412;51.206;6.888;2023-03-20T10:05:47;7.27;;;2.90;;
5245;SDS011;54412;51.206;6.888;2023-03-20T10:08:27;12.00;;;2.47;;
5245;SDS011;54412;51.206;6.888;2023-03-20T10:19:43;4.60;;;2.70;;
5245;SDS011;54412;51.206;6.888;2023-03-20T10:22:21;6.00;;;2.63;;
5245;SDS011;54412;51.206;6.888;2023-03-20T10:25:06;7.37;;;2.50;;
5245;SDS011;54412;51.206;6.888;2023-03-20T10:28:00;8.57;;;2.90;;
5245;SDS011;54412;51.206;6.888;2023-03-20T10:30:32;6.00;;;3.00;;
5245;SDS011;54412;51.206;6.888;2023-03-20T10:39:15;6.27;;;2.90;;
5245;SDS011;54412;51.206;6.888;2023-03-20T10:41:53;5.60;;;2.70;;
5245;SDS011;54412;51.206;6.888;2023-03-20T10:44:28;3.93;;;1.90;;
5245;SDS011;54412;51.206;6.888;2023-03-20T10:47:05;5.40;;;2.50;;
5245;SDS011;54412;51.206;6.888;2023-03-20T10:52:42;5.27;;;2.63;;
5245;SDS011;54412;51.206;6.888;2023-03-20T10:55:14;12.73;;;3.30;;
5245;SDS011;54412;51.206;6.888;2023-03-20T10:57:50;6.97;;;2.90;;
5245;SDS011;54412;51.206;6.888;2023-03-20T11:00:24;6.40;;;2.93;;
5245;SDS011;54412;51.206;6.888;2023-03-20T11:02:51;6.00;;;3.20;;
5245;SDS011;54412;51.206;6.888;2023-03-20T11:10:35;6.30;;;3.70;;
5245;SDS011;54412;51.206;6.888;2023-03-20T11:13:24;11.27;;;3.60;;
5245;SDS011;54412;51.206;6.888;2023-03-20T11:16:07;10.90;;;4.47;;
5245;SDS011;54412;51.206;6.888;2023-03-20T11:18:47;8.00;;;4.10;;
5245;SDS011;54412;51.206;6.888;2023-03-20T11:21:18;9.40;;;4.80;;
5245;SDS011;54412;51.206;6.888;2023-03-20T11:23:55;6.40;;;3.67;;
5245;SDS011;54412;51.206;6.888;2023-03-20T11:26:32;3.23;;;2.93;;
5245;SDS011;54412;51.206;6.888;2023-03-20T11:29:06;6.27;;;4.33;;
5245;SDS011;54412;51.206;6.888;2023-03-20T11:31:43;7.47;;;2.77;;
5245;SDS011;54412;51.206;6.888;2023-03-20T11:36:38;9.97;;;3.77;;
5245;SDS011;54412;51.206;6.888;2023-03-20T11:39:21;7.90;;;4.23;;
5245;SDS011;54412;51.206;6.888;2023-03-20T11:41:55;7.00;;;3.83;;
5245;SDS011;54412;51.206;6.888;2023-03-20T11:44:34;15.37;;;2.80;;
5245;SDS011;54412;51.206;6.888;2023-03-20T11:47:02;5.23;;;2.87;;
5245;SDS011;54412;51.206;6.888;2023-03-20T11:49:47;3.27;;;2.73;;
5245;SDS011;54412;51.206;6.888;2023-03-20T11:52:20;7.83;;;3.67;;
5245;SDS011;54412;51.206;6.888;2023-03-20T11:54:53;9.03;;;3.20;;
5245;SDS011;54412;51.206;6.888;2023-03-20T11:57:35;6.10;;;3.03;;
5245;SDS011;54412;51.206;6.888;2023-03-20T12:00:06;6.83;;;3.10;;
5245;SDS011;54412;51.206;6.888;2023-03-20T12:02:48;7.63;;;3.03;;
5245;SDS011;54412;51.206;6.888;2023-03-20T12:05:33;5.80;;;2.10;;
5245;SDS011;54412;51.206;6.888;2023-03-20T12:08:06;7.30;;;2.87;;
5245;SDS011;54412;51.206;6.888;2023-03-20T12:10:43;12.00;;;2.80;;
5245;SDS011;54412;51.206;6.888;2023-03-20T12:13:23;8.43;;;3.27;;
5245;SDS011;54412;51.206;6.888;2023-03-20T12:16:00;4.27;;;2.70;;
5245;SDS011;54412;51.206;6.888;2023-03-20T12:18:32;5.73;;;3.17;;
5245;SDS011;54412;51.206;6.888;2023-03-20T12:27:14;6.67;;;3.53;;
5245;SDS011;54412;51.206;6.888;2023-03-20T12:30:03;9.27;;;3.33;;
5245;SDS011;54412;51.206;6.888;2023-03-20T12:32:41;15.13;;;3.43;;
5245;SDS011;54412;51.206;6.888;2023-03-20T12:37:56;6.63;;;3.03;;
5245;SDS011;54412;51.206;6.888;2023-03-20T12:40:35;10.03;;;3.00;;
5245;SDS011;54412;51.206;6.888;2023-03-20T12:43:14;3.80;;;2.60;;
5245;SDS011;54412;51.206;6.888;2023-03-20T12:46:10;3.83;;;2.83;;
5245;SDS011;54412;51.206;6.888;2023-03-20T12:49:41;6.40;;;2.50;;
5245;SDS011;54412;51.206;6.888;2023-03-20T12:52:29;5.70;;;2.93;;
5245;SDS011;54412;51.206;6.888;2023-03-20T12:55:32;9.13;;;2.87;;
5245;SDS011;54412;51.206;6.888;2023-03-20T12:58:26;6.53;;;2.63;;
5245;SDS011;54412;51.206;6.888;2023-03-20T13:04:03;6.17;;;2.43;;
5245;SDS011;54412;51.206;6.888;2023-03-20T13:12:34;5.87;;;2.90;;
5245;SDS011;54412;51.206;6.888;2023-03-20T13:21:05;6.93;;;2.97;;
5245;SDS011;54412;51.206;6.888;2023-03-20T13:27:07;8.23;;;2.67;;
5245;SDS011;54412;51.206;6.888;2023-03-20T13:30:15;5.60;;;3.03;;
5245;SDS011;54412;51.206;6.888;2023-03-20T13:36:44;4.90;;;2.87;;
5245;SDS011;54412;51.206;6.888;2023-03-20T13:41:45;4.13;;;3.20;;
5245;SDS011;54412;51.206;6.888;2023-03-20T13:44:13;6.43;;;2.80;;
5245;SDS011;54412;51.206;6.888;2023-03-20T13:46:45;5.43;;;2.70;;
5245;SDS011;54412;51.206;6.888;2023-03-20T13:51:56;4.33;;;2.83;;
5245;SDS011;54412;51.206;6.888;2023-03-20T14:00:34;6.77;;;3.20;;
5245;SDS011;54412;51.206;6.888;2023-03-20T14:03:18;9.57;;;2.50;;
5245;SDS011;54412;51.206;6.888;2023-03-20T14:05:56;8.93;;;3.63;;
5245;SDS011;54412;51.206;6.888;2023-03-20T14:08:23;5.10;;;2.87;;
5245;SDS011;54412;51.206;6.888;2023-03-20T14:11:05;5.27;;;3.13;;
5245;SDS011;54412;51.206;6.888;2023-03-20T14:13:48;5.57;;;3.40;;
5245;SDS011;54412;51.206;6.888;2023-03-20T14:16:20;7.17;;;3.30;;
5245;SDS011;54412;51.206;6.888;2023-03-20T14:18:47;10.10;;;3.50;;
5245;SDS011;54412;51.206;6.888;2023-03-20T14:21:27;7.53;;;3.60;;
5245;SDS011;54412;51.206;6.888;2023-03-20T14:23:59;7.90;;;3.23;;
5245;SDS011;54412;51.206;6.888;2023-03-20T14:26:36;9.43;;;3.10;;
5245;SDS011;54412;51.206;6.888;2023-03-20T14:31:35;10.23;;;3.50;;
5245;SDS011;54412;51.206;6.888;2023-03-20T14:39:27;11.03;;;3.60;;
5245;SDS011;54412;51.206;6.888;2023-03-20T14:56:52;7.80;;;3.30;;
5245;SDS011;54412;51.206;6.888;2023-03-20T14:59:20;9.60;;;3.83;;
5245;SDS011;54412;51.206;6.888;2023-03-20T15:02:00;8.87;;;2.77;;
5245;SDS011;54412;51.206;6.888;2023-03-20T15:04:32;16.43;;;3.27;;
5245;SDS011;54412;51.206;6.888;2023-03-20T15:07:16;12.37;;;3.83;;
5245;SDS011;54412;51.206;6.888;2023-03-20T15:09:46;9.57;;;2.63;;
5245;SDS011;54412;51.206;6.888;2023-03-20T15:12:18;10.70;;;3.43;;
5245;SDS011;54412;51.206;6.888;2023-03-20T15:17:40;11.90;;;2.83;;
5245;SDS011;54412;51.206;6.888;2023-03-20T15:25:17;11.37;;;3.37;;
5245;SDS011;54412;51.206;6.888;2023-03-20T15:27:45;14.43;;;3.77;;
5245;SDS011;54412;51.206;6.888;2023-03-20T15:30:14;8.63;;;3.27;;
5245;SDS011;54412;51.206;6.888;2023-03-20T15:32:43;9.40;;;3.07;;
5245;SDS011;54412;51.206;6.888;2023-03-20T15:35:15;14.83;;;4.00;;
5245;SDS011;54412;51.206;6.888;2023-03-20T15:37:45;9.60;;;3.17;;
5245;SDS011;54412;51.206;6.888;2023-03-20T15:40:32;8.80;;;2.70;;
5245;SDS011;54412;51.206;6.888;2023-03-20T15:43:17;13.70;;;4.17;;
5245;SDS011;54412;51.206;6.888;2023-03-20T15:45:48;11.30;;;2.60;;
5245;SDS011;54412;51.206;6.888;2023-03-20T15:48:19;11.43;;;3.20;;
5245;SDS011;54412;51.206;6.888;2023-03-20T15:50:51;5.60;;;2.33;;
5245;SDS011;54412;51.206;6.888;2023-03-20T15:53:30;6.30;;;2.37;;
5245;SDS011;54412;51.206;6.888;2023-03-20T15:58:32;12.20;;;3.00;;
5245;SDS011;54412;51.206;6.888;2023-03-20T16:01:00;8.40;;;3.40;;
5245;SDS011;54412;51.206;6.888;2023-03-20T16:03:29;11.77;;;2.87;;
5245;SDS011;54412;51.206;6.888;2023-03-20T16:05:59;13.60;;;3.33;;
5245;SDS011;54412;51.206;6.888;2023-03-20T16:08:27;6.00;;;2.37;;
5245;SDS011;54412;51.206;6.888;2023-03-20T16:11:02;9.13;;;3.47;;
5245;SDS011;54412;51.206;6.888;2023-03-20T16:13:39;12.47;;;3.87;;
5245;SDS011;54412;51.206;6.888;2023-03-20T16:16:12;9.27;;;3.63;;
5245;SDS011;54412;51.206;6.888;2023-03-20T16:18:47;7.07;;;3.77;;
5245;SDS011;54412;51.206;6.888;2023-03-20T16:21:17;16.50;;;3.40;;
5245;SDS011;54412;51.206;6.888;2023-03-20T16:23:57;15.50;;;3.27;;
5245;SDS011;54412;51.206;6.888;2023-03-20T16:26:25;5.20;;;3.10;;
5245;SDS011;54412;51.206;6.888;2023-03-20T16:28:57;9.37;;;3.20;;
5245;SDS011;54412;51.206;6.888;2023-03-20T16:31:30;12.47;;;3.27;;
5245;SDS011;54412;51.206;6.888;2023-03-20T16:34:00;14.90;;;3.43;;
5245;SDS011;54412;51.206;6.888;2023-03-20T16:36:33;6.13;;;3.40;;
5245;SDS011;54412;51.206;6.888;2023-03-20T16:41:34;5.97;;;3.03;;
5245;SDS011;54412;51.206;6.888;2023-03-20T16:44:06;12.43;;;3.00;;
5245;SDS011;54412;51.206;6.888;2023-03-20T16:52:32;7.37;;;2.90;;
5245;SDS011;54412;51.206;6.888;2023-03-20T16:55:03;8.03;;;3.30;;
5245;SDS011;54412;51.206;6.888;2023-03-20T16:57:34;8.23;;;2.93;;
5245;SDS011;54412;51.206;6.888;2023-03-20T17:00:06;6.27;;;2.73;;
5245;SDS011;54412;51.206;6.888;2023-03-20T17:02:49;10.00;;;2.90;;
5245;SDS011;54412;51.206;6.888;2023-03-20T17:05:23;7.93;;;2.50;;
5245;SDS011;54412;51.206;6.888;2023-03-20T17:08:09;9.10;;;2.80;;
5245;SDS011;54412;51.206;6.888;2023-03-20T17:10:41;3.70;;;2.60;;
5245;SDS011;54412;51.206;6.888;2023-03-20T17:13:12;8.43;;;3.03;;
5245;SDS011;54412;51.206;6.888;2023-03-20T17:15:39;9.93;;;3.40;;
5245;SDS011;54412;51.206;6.888;2023-03-20T17:18:04;14.97;;;2.90;;
5245;SDS011;54412;51.206;6.888;2023-03-20T17:20:33;12.17;;;3.00;;
5245;SDS011;54412;51.206;6.888;2023-03-20T17:22:59;11.03;;;3.73;;
5245;SDS011;54412;51.206;6.888;2023-03-20T17:25:25;9.00;;;3.70;;
5245;SDS011;54412;51.206;6.888;2023-03-20T17:27:51;10.83;;;2.90;;
5245;SDS011;54412;51.206;6.888;2023-03-20T17:32:48;10.17;;;3.07;;
5245;SDS011;54412;51.206;6.888;2023-03-20T17:35:15;3.93;;;2.33;;
5245;SDS011;54412;51.206;6.888;2023-03-20T17:37:41;9.27;;;2.80;;
5245;SDS011;54412;51.206;6.888;2023-03-20T17:40:10;6.37;;;2.87;;
5245;SDS011;54412;51.206;6.888;2023-03-20T17:42:45;10.13;;;3.50;;
5245;SDS011;54412;51.206;6.888;2023-03-20T17:45:13;10.77;;;3.10;;
5245;SDS011;54412;51.206;6.888;2023-03-20T17:47:41;8.23;;;3.30;;
5245;SDS011;54412;51.206;6.888;2023-03-20T17:50:16;7.30;;;2.40;;